Time;durP1;ratioP1;P1;durP2;ratioP2;P2;SDS_P1;SDS_P2;PMS_P1;PMS_P2;Temp;Humidity;BMP_temperature;BMP_pressure;BME280_temperature;BME280_humidity;BME280_pressure;Samples;Min_cycle;Max_cycle;Signal;HPM_P1;HPM_P2
2022/05/02 00:02:03;;;;;;;8.73;7.80;;;;;;;;;;5012077;28;20651;-68
2022/05/02 00:04:28;;;;;;;8.63;7.63;;;;;;;;;;5012223;28;20175;-68
2022/05/02 00:06:53;;;;;;;8.80;7.07;;;;;;;;;;5005867;28;20182;-68
2022/05/02 00:09:18;;;;;;;10.77;7.43;;;;;;;;;;5009681;28;20183;-70
2022/05/02 00:11:43;;;;;;;9.37;8.13;;;;;;;;;;5012459;28;20272;-71
2022/05/02 00:14:09;;;;;;;7.93;6.90;;;;;;;;;;5012941;28;20186;-70
2022/05/02 00:16:35;;;;;;;13.23;7.90;;;;;;;;;;5004622;28;20180;-70
2022/05/02 00:19:01;;;;;;;8.57;7.10;;;;;;;;;;5009453;28;20179;-70
2022/05/02 00:21:26;;;;;;;8.50;7.13;;;;;;;;;;5011614;28;20202;-70
2022/05/02 00:23:51;;;;;;;9.00;7.40;;;;;;;;;;5011820;28;20229;-70
2022/05/02 00:26:16;;;;;;;9.73;8.43;;;;;;;;;;5012107;28;20194;-70
2022/05/02 00:28:41;;;;;;;9.50;7.50;;;;;;;;;;5007872;28;20612;-70
2022/05/02 00:31:06;;;;;;;10.23;8.07;;;;;;;;;;5005991;28;20222;-70
2022/05/02 00:33:32;;;;;;;9.97;8.27;;;;;;;;;;5005677;28;20554;-70
2022/05/02 00:35:57;;;;;;;9.80;7.97;;;;;;;;;;5002245;28;20728;-70
2022/05/02 00:38:22;;;;;;;10.00;7.80;;;;;;;;;;5009484;28;20171;-70
2022/05/02 00:40:47;;;;;;;8.60;7.70;;;;;;;;;;5009224;28;20211;-70
2022/05/02 00:43:12;;;;;;;8.90;7.87;;;;;;;;;;4997114;28;20296;-68
2022/05/02 00:45:38;;;;;;;10.93;8.07;;;;;;;;;;5002824;28;20195;-70
2022/05/02 00:48:03;;;;;;;11.13;7.70;;;;;;;;;;5002891;28;20717;-69
2022/05/02 00:50:36;;;;;;;8.73;7.53;;;;;;;;;;5011421;28;20206;-69
2022/05/02 00:53:02;;;;;;;10.13;8.37;;;;;;;;;;5013460;28;20221;-69
2022/05/02 00:55:28;;;;;;;11.73;7.80;;;;;;;;;;5006155;28;20185;-70
2022/05/02 00:57:54;;;;;;;11.93;8.83;;;;;;;;;;5010478;28;20254;-69
2022/05/02 01:00:19;;;;;;;13.07;7.90;;;;;;;;;;5001694;28;20214;-70
2022/05/02 01:02:44;;;;;;;10.33;8.20;;;;;;;;;;5007619;28;20199;-70
2022/05/02 01:05:09;;;;;;;12.23;8.57;;;;;;;;;;5010133;28;20279;-70
2022/05/02 01:07:35;;;;;;;10.30;8.50;;;;;;;;;;5005825;28;20248;-68
2022/05/02 01:10:00;;;;;;;9.37;7.93;;;;;;;;;;5008457;28;20568;-70
2022/05/02 01:12:25;;;;;;;11.43;8.13;;;;;;;;;;5010820;28;20179;-70
2022/05/02 01:14:52;;;;;;;14.83;8.13;;;;;;;;;;5006981;28;20210;-70
2022/05/02 01:17:17;;;;;;;11.97;8.90;;;;;;;;;;5011522;28;20241;-69
2022/05/02 01:19:43;;;;;;;11.23;8.60;;;;;;;;;;5010032;28;20609;-70
2022/05/02 01:22:08;;;;;;;11.70;9.23;;;;;;;;;;5010798;28;20199;-70
2022/05/02 01:24:41;;;;;;;11.47;9.10;;;;;;;;;;5001784;28;20262;-70
2022/05/02 01:27:07;;;;;;;10.17;8.43;;;;;;;;;;5005952;28;20222;-70
2022/05/02 01:29:32;;;;;;;11.77;9.47;;;;;;;;;;5011314;28;20183;-70
2022/05/02 01:31:58;;;;;;;10.23;8.90;;;;;;;;;;5011172;28;20237;-68
2022/05/02 01:34:23;;;;;;;13.77;9.50;;;;;;;;;;5011211;28;20725;-70
2022/05/02 01:36:49;;;;;;;11.80;9.40;;;;;;;;;;5011043;28;20198;-70
2022/05/02 01:39:14;;;;;;;11.63;9.47;;;;;;;;;;5002984;28;20175;-70
2022/05/02 01:41:39;;;;;;;12.07;9.20;;;;;;;;;;5001156;28;20207;-71
2022/05/02 01:44:04;;;;;;;12.97;9.30;;;;;;;;;;5008517;28;20286;-70
2022/05/02 01:46:30;;;;;;;11.97;8.57;;;;;;;;;;5011374;28;20269;-70
2022/05/02 01:48:58;;;;;;;11.77;7.90;;;;;;;;;;5008128;28;20211;-70
2022/05/02 01:51:24;;;;;;;11.37;9.07;;;;;;;;;;5011121;28;20237;-70
2022/05/02 01:53:49;;;;;;;13.43;9.77;;;;;;;;;;5011556;28;20210;-69
2022/05/02 01:56:14;;;;;;;14.30;9.40;;;;;;;;;;5009942;28;20374;-70
2022/05/02 01:58:39;;;;;;;9.93;8.87;;;;;;;;;;5008306;28;20684;-70
2022/05/02 02:01:04;;;;;;;10.63;8.83;;;;;;;;;;5006603;28;20215;-70
2022/05/02 02:03:30;;;;;;;12.07;9.50;;;;;;;;;;5006646;28;20186;-70
2022/05/02 02:05:55;;;;;;;10.97;8.80;;;;;;;;;;5009029;28;20187;-70
2022/05/02 02:08:34;;;;;;;10.80;9.70;;;;;;;;;;4997816;28;20198;-69
2022/05/02 02:11:00;;;;;;;14.13;9.87;;;;;;;;;;5008559;28;20209;-70
2022/05/02 02:13:25;;;;;;;12.97;9.03;;;;;;;;;;5008741;28;20201;-70
2022/05/02 02:15:50;;;;;;;11.03;9.37;;;;;;;;;;5005972;28;20637;-70
2022/05/02 02:18:16;;;;;;;11.43;9.80;;;;;;;;;;5007003;28;20179;-70
2022/05/02 02:20:42;;;;;;;10.07;9.03;;;;;;;;;;5010065;28;20680;-70
2022/05/02 02:23:07;;;;;;;10.53;9.43;;;;;;;;;;5010155;28;20266;-70
2022/05/02 02:25:32;;;;;;;14.00;9.60;;;;;;;;;;5009620;28;20716;-71
2022/05/02 02:27:58;;;;;;;13.97;10.30;;;;;;;;;;5011384;28;20194;-69
2022/05/02 02:30:24;;;;;;;16.57;10.00;;;;;;;;;;5010100;28;20245;-69
2022/05/02 02:32:49;;;;;;;10.77;9.43;;;;;;;;;;5012649;28;20214;-69
2022/05/02 02:35:14;;;;;;;12.07;9.53;;;;;;;;;;5012819;28;20551;-69
2022/05/02 02:37:39;;;;;;;13.53;9.33;;;;;;;;;;5012036;28;20579;-69
2022/05/02 02:40:05;;;;;;;14.13;9.47;;;;;;;;;;5014178;28;20210;-69
2022/05/02 02:42:30;;;;;;;12.83;10.00;;;;;;;;;;5007001;28;20171;-69
2022/05/02 02:44:55;;;;;;;12.60;9.67;;;;;;;;;;5014040;28;20175;-70
2022/05/02 02:47:20;;;;;;;13.10;9.40;;;;;;;;;;5011177;28;20182;-69
2022/05/02 02:49:46;;;;;;;10.73;9.40;;;;;;;;;;5010000;28;20194;-69
2022/05/02 02:52:11;;;;;;;14.33;10.27;;;;;;;;;;5011394;28;20619;-69
2022/05/02 02:54:36;;;;;;;12.50;10.30;;;;;;;;;;5013785;28;20661;-69
2022/05/02 02:57:01;;;;;;;15.53;10.53;;;;;;;;;;5011094;28;20314;-69
2022/05/02 02:59:26;;;;;;;13.43;9.87;;;;;;;;;;5014541;28;20657;-69
2022/05/02 03:01:52;;;;;;;12.77;9.77;;;;;;;;;;5007220;28;20220;-69
2022/05/02 03:07:01;;;;;;;14.97;10.53;;;;;;;;;;5007462;28;20611;-69
2022/05/02 03:09:27;;;;;;;13.37;10.60;;;;;;;;;;5013494;28;20179;-69
2022/05/02 03:11:52;;;;;;;13.10;10.07;;;;;;;;;;5011936;28;20783;-69
2022/05/02 03:14:18;;;;;;;13.40;9.83;;;;;;;;;;5013408;28;20266;-69
2022/05/02 03:16:43;;;;;;;12.80;10.47;;;;;;;;;;5009421;28;20186;-69
2022/05/02 03:19:08;;;;;;;18.50;11.43;;;;;;;;;;5013161;28;20194;-69
2022/05/02 03:21:33;;;;;;;12.87;10.00;;;;;;;;;;5012917;28;20209;-70
2022/05/02 03:23:58;;;;;;;13.63;9.40;;;;;;;;;;5013291;28;20573;-69
2022/05/02 03:26:23;;;;;;;12.10;9.70;;;;;;;;;;5006417;28;20269;-69
2022/05/02 03:28:49;;;;;;;13.63;10.50;;;;;;;;;;5010372;28;20216;-69
2022/05/02 03:31:15;;;;;;;13.00;10.50;;;;;;;;;;5013354;28;20712;-69
2022/05/02 03:33:40;;;;;;;13.83;10.90;;;;;;;;;;5012223;28;20186;-69
2022/05/02 03:36:06;;;;;;;12.83;10.53;;;;;;;;;;5007609;28;20175;-71
2022/05/02 03:38:31;;;;;;;14.10;10.13;;;;;;;;;;5010162;28;20183;-70
2022/05/02 03:40:56;;;;;;;14.43;10.83;;;;;;;;;;5012316;28;20214;-70
2022/05/02 03:43:21;;;;;;;14.17;10.60;;;;;;;;;;5012934;28;20199;-70
2022/05/02 03:45:47;;;;;;;13.97;11.17;;;;;;;;;;5013299;28;20198;-70
2022/05/02 03:48:12;;;;;;;13.17;10.50;;;;;;;;;;5006089;28;20191;-70
2022/05/02 03:50:37;;;;;;;14.17;11.00;;;;;;;;;;5013068;28;20238;-70
2022/05/02 03:53:02;;;;;;;15.80;11.07;;;;;;;;;;5016930;28;20209;-70
2022/05/02 03:55:27;;;;;;;15.57;12.23;;;;;;;;;;5011426;28;20175;-69
2022/05/02 03:57:52;;;;;;;14.33;11.37;;;;;;;;;;5012233;28;20641;-69
2022/05/02 04:00:18;;;;;;;15.53;10.40;;;;;;;;;;5010617;28;20669;-69
2022/05/02 04:02:43;;;;;;;14.00;10.03;;;;;;;;;;5008534;28;20194;-69
2022/05/02 04:05:09;;;;;;;13.83;10.43;;;;;;;;;;5013530;28;20179;-69
2022/05/02 04:07:34;;;;;;;13.63;9.73;;;;;;;;;;5011118;28;20175;-69
2022/05/02 04:09:59;;;;;;;15.60;11.57;;;;;;;;;;5012581;28;20189;-70
2022/05/02 04:12:25;;;;;;;13.17;10.20;;;;;;;;;;5007129;28;20171;-69
2022/05/02 04:14:50;;;;;;;13.83;10.60;;;;;;;;;;5012376;28;20637;-70
2022/05/02 04:17:15;;;;;;;15.97;10.37;;;;;;;;;;5012668;28;20222;-70
2022/05/02 04:19:40;;;;;;;17.27;10.77;;;;;;;;;;5003968;28;20514;-70
2022/05/02 04:22:06;;;;;;;13.93;10.90;;;;;;;;;;5010764;28;20234;-70
2022/05/02 04:24:31;;;;;;;13.23;10.77;;;;;;;;;;5012315;28;20175;-70
2022/05/02 04:26:57;;;;;;;13.60;10.77;;;;;;;;;;5004452;28;20543;-68
2022/05/02 04:29:23;;;;;;;15.90;11.70;;;;;;;;;;4997158;28;20186;-69
2022/05/02 04:31:48;;;;;;;15.33;11.17;;;;;;;;;;5006823;28;20218;-68
2022/05/02 04:34:14;;;;;;;13.20;11.63;;;;;;;;;;5004347;28;20266;-69
2022/05/02 04:36:39;;;;;;;16.03;12.30;;;;;;;;;;5010544;28;20183;-68
2022/05/02 04:39:04;;;;;;;14.83;12.07;;;;;;;;;;5006459;28;20193;-69
2022/05/02 04:41:29;;;;;;;17.77;12.67;;;;;;;;;;5003164;28;20211;-68
2022/05/02 04:43:55;;;;;;;18.13;12.17;;;;;;;;;;5004279;28;20604;-69
2022/05/02 04:46:20;;;;;;;17.10;12.77;;;;;;;;;;5009100;28;20179;-69
2022/05/02 04:48:45;;;;;;;17.93;12.40;;;;;;;;;;5005286;28;20202;-69
2022/05/02 04:51:10;;;;;;;20.13;12.90;;;;;;;;;;5005220;28;20611;-69
2022/05/02 04:53:36;;;;;;;15.97;12.70;;;;;;;;;;5007673;28;20641;-69
2022/05/02 04:56:01;;;;;;;16.23;12.23;;;;;;;;;;5008919;28;20197;-69
2022/05/02 04:58:27;;;;;;;15.37;12.30;;;;;;;;;;5007498;28;20692;-69
2022/05/02 05:00:52;;;;;;;21.87;14.43;;;;;;;;;;5011593;28;20297;-69
2022/05/02 05:03:17;;;;;;;17.03;12.23;;;;;;;;;;5002494;28;20533;-69
2022/05/02 05:05:43;;;;;;;18.20;12.87;;;;;;;;;;5008425;28;20179;-69
2022/05/02 05:08:08;;;;;;;15.93;12.07;;;;;;;;;;5003149;28;20186;-69
2022/05/02 05:10:41;;;;;;;21.77;13.23;;;;;;;;;;5010022;28;20210;-69
2022/05/02 05:13:07;;;;;;;17.27;11.47;;;;;;;;;;5010173;28;20210;-69
2022/05/02 05:18:53;;;;;;;15.07;11.60;;;;;;;;;;5007110;28;20186;-69
2022/05/02 05:21:28;;;;;;;14.40;11.87;;;;;;;;;;5009685;28;20723;-69
2022/05/02 05:24:00;;;;;;;17.03;12.83;;;;;;;;;;5010382;28;20187;-69
2022/05/02 05:26:26;;;;;;;18.63;13.87;;;;;;;;;;5006255;28;20570;-69
2022/05/02 05:29:10;;;;;;;20.70;13.98;;;;;;;;;;5009927;28;20186;-69
2022/05/02 05:31:41;;;;;;;18.37;13.50;;;;;;;;;;5004628;28;20218;-69
2022/05/02 05:34:24;;;;;;;17.47;13.60;;;;;;;;;;5007521;28;20182;-69
2022/05/02 05:37:12;;;;;;;21.63;14.03;;;;;;;;;;5004775;28;20253;-69
2022/05/02 05:39:42;;;;;;;17.53;12.87;;;;;;;;;;4999278;28;20187;-70
2022/05/02 05:42:21;;;;;;;21.50;12.60;;;;;;;;;;5005615;28;20203;-70
2022/05/02 05:45:02;;;;;;;19.97;13.97;;;;;;;;;;5006297;28;20187;-70
2022/05/02 05:47:36;;;;;;;19.23;13.13;;;;;;;;;;5010829;28;20284;-70
2022/05/02 05:50:10;;;;;;;17.37;12.80;;;;;;;;;;5003251;28;20195;-70
2022/05/02 05:52:36;;;;;;;16.17;12.73;;;;;;;;;;5007169;28;20190;-70
2022/05/02 05:55:05;;;;;;;17.33;12.70;;;;;;;;;;5010561;28;20502;-71
2022/05/02 05:57:34;;;;;;;15.63;12.17;;;;;;;;;;5010151;28;20178;-70
2022/05/02 06:00:04;;;;;;;15.37;12.57;;;;;;;;;;5006489;28;20167;-70
2022/05/02 06:02:39;;;;;;;15.97;12.60;;;;;;;;;;5006924;28;20656;-70
2022/05/02 06:05:04;;;;;;;16.33;11.43;;;;;;;;;;5006073;28;20197;-70
2022/05/02 06:07:32;;;;;;;15.03;11.67;;;;;;;;;;5010580;28;20522;-69
2022/05/02 06:10:00;;;;;;;15.07;12.17;;;;;;;;;;5006998;28;20175;-68
2022/05/02 06:12:29;;;;;;;20.27;12.47;;;;;;;;;;5003321;28;20183;-70
2022/05/02 06:20:28;;;;;;;15.47;11.33;;;;;;;;;;4994227;28;20222;-70
2022/05/02 06:22:53;;;;;;;15.70;11.53;;;;;;;;;;4999170;28;20615;-70
2022/05/02 06:25:20;;;;;;;16.87;11.90;;;;;;;;;;5008160;28;20186;-70
2022/05/02 06:27:47;;;;;;;13.90;11.13;;;;;;;;;;5008454;28;20573;-70
2022/05/02 06:30:13;;;;;;;17.40;12.07;;;;;;;;;;5005380;28;20225;-70
2022/05/02 06:32:42;;;;;;;13.07;11.33;;;;;;;;;;5010533;28;20179;-69
2022/05/02 06:35:07;;;;;;;16.27;9.90;;;;;;;;;;5008302;28;20175;-71
2022/05/02 06:37:54;;;;;;;12.38;9.80;;;;;;;;;;5009316;28;20178;-69
2022/05/02 06:40:25;;;;;;;12.60;10.52;;;;;;;;;;5004523;28;20754;-69
2022/05/02 06:42:57;;;;;;;12.32;9.80;;;;;;;;;;5010612;28;20178;-69
2022/05/02 06:45:26;;;;;;;10.60;8.43;;;;;;;;;;5003598;28;20214;-69
2022/05/02 06:47:54;;;;;;;14.15;9.95;;;;;;;;;;5010780;28;20207;-69
2022/05/02 06:50:22;;;;;;;12.75;9.25;;;;;;;;;;5009354;28;20230;-68
2022/05/02 06:52:56;;;;;;;13.48;9.77;;;;;;;;;;5009965;28;20237;-69
2022/05/02 06:55:33;;;;;;;11.57;9.07;;;;;;;;;;5003669;28;20266;-69
2022/05/02 06:57:59;;;;;;;12.48;9.77;;;;;;;;;;5009623;28;20655;-69
2022/05/02 07:00:24;;;;;;;11.40;9.32;;;;;;;;;;5009303;28;20222;-70
2022/05/02 07:03:06;;;;;;;11.10;8.38;;;;;;;;;;5009943;28;20262;-69
2022/05/02 07:05:51;;;;;;;11.90;8.95;;;;;;;;;;5007028;28;20179;-69
2022/05/02 07:08:22;;;;;;;13.10;10.13;;;;;;;;;;5006183;28;20560;-69
2022/05/02 07:10:50;;;;;;;11.00;9.35;;;;;;;;;;5007003;28;20641;-70
2022/05/02 07:13:34;;;;;;;12.73;8.27;;;;;;;;;;5011437;28;20167;-70
2022/05/02 07:16:09;;;;;;;10.85;9.07;;;;;;;;;;5012197;28;20233;-70
2022/05/02 07:18:45;;;;;;;10.80;8.55;;;;;;;;;;5013934;28;20714;-71
2022/05/02 07:21:26;;;;;;;11.82;9.68;;;;;;;;;;5014718;28;20248;-68
2022/05/02 07:24:03;;;;;;;10.35;9.25;;;;;;;;;;5014574;28;20555;-68
2022/05/02 07:26:29;;;;;;;11.95;9.25;;;;;;;;;;5011933;28;20175;-68
2022/05/02 07:28:58;;;;;;;11.73;7.75;;;;;;;;;;5012504;28;20544;-69
2022/05/02 07:31:24;;;;;;;10.38;8.25;;;;;;;;;;5014646;28;20214;-69
2022/05/02 07:33:50;;;;;;;11.80;8.73;;;;;;;;;;5014441;28;20179;-69
2022/05/02 07:36:17;;;;;;;10.52;9.48;;;;;;;;;;5014336;28;20183;-69
2022/05/02 07:38:44;;;;;;;10.80;8.82;;;;;;;;;;5012486;28;20179;-69
2022/05/02 07:41:22;;;;;;;8.95;8.15;;;;;;;;;;5014363;28;20206;-69
2022/05/02 07:44:04;;;;;;;11.60;8.18;;;;;;;;;;5014236;28;20186;-69
2022/05/02 07:46:31;;;;;;;11.52;8.85;;;;;;;;;;5014051;28;20206;-69
2022/05/02 07:48:58;;;;;;;10.65;8.45;;;;;;;;;;5009525;28;20563;-68
2022/05/02 07:51:23;;;;;;;9.18;8.05;;;;;;;;;;5014078;28;20253;-69
2022/05/02 07:53:50;;;;;;;11.80;8.38;;;;;;;;;;5017054;28;20170;-69
2022/05/02 07:56:15;;;;;;;9.88;8.55;;;;;;;;;;5013642;28;20183;-69
2022/05/02 07:58:41;;;;;;;9.23;8.32;;;;;;;;;;5013420;28;20194;-69
2022/05/02 08:01:06;;;;;;;14.18;8.82;;;;;;;;;;5015239;28;20215;-69
2022/05/02 08:03:32;;;;;;;12.65;8.40;;;;;;;;;;5029209;28;20174;-69
2022/05/02 08:06:02;;;;;;;11.03;9.13;;;;;;;;;;5014427;28;20183;-69
2022/05/02 08:08:36;;;;;;;10.13;9.07;;;;;;;;;;5016451;28;20428;-69
2022/05/02 08:11:13;;;;;;;9.25;7.63;;;;;;;;;;5016666;28;20267;-69
2022/05/02 08:13:47;;;;;;;8.52;7.68;;;;;;;;;;5013493;28;20179;-69
2022/05/02 08:16:25;;;;;;;9.27;7.88;;;;;;;;;;5012707;28;20628;-69
2022/05/02 08:18:59;;;;;;;9.73;7.90;;;;;;;;;;5012696;28;20178;-69
2022/05/02 08:21:28;;;;;;;8.05;7.28;;;;;;;;;;5013546;28;20676;-69
2022/05/02 08:27:19;;;;;;;8.20;6.78;;;;;;;;;;5009069;28;20186;-69
2022/05/02 08:29:53;;;;;;;8.18;6.85;;;;;;;;;;5012705;28;20207;-69
2022/05/02 08:32:40;;;;;;;8.93;6.82;;;;;;;;;;5007147;28;20272;-69
2022/05/02 08:35:08;;;;;;;9.63;7.50;;;;;;;;;;5013590;28;20194;-69
2022/05/02 08:37:53;;;;;;;7.82;7.13;;;;;;;;;;5009703;28;20184;-69
2022/05/02 08:40:18;;;;;;;8.50;7.10;;;;;;;;;;5005567;28;20186;-69
2022/05/02 08:42:52;;;;;;;8.32;7.53;;;;;;;;;;5003742;28;20180;-69
2022/05/02 08:45:27;;;;;;;11.07;6.68;;;;;;;;;;5013080;28;20181;-69
2022/05/02 08:48:04;;;;;;;8.02;6.57;;;;;;;;;;5003954;28;20218;-69
2022/05/02 08:50:39;;;;;;;8.77;6.13;;;;;;;;;;5005949;28;20298;-69
2022/05/02 08:53:16;;;;;;;7.30;6.45;;;;;;;;;;5016555;28;20261;-69
2022/05/02 08:55:53;;;;;;;6.95;6.20;;;;;;;;;;5012721;28;20170;-69
2022/05/02 08:58:37;;;;;;;6.20;5.60;;;;;;;;;;5009998;28;20668;-69
2022/05/02 09:01:17;;;;;;;6.30;5.70;;;;;;;;;;5012064;28;20215;-69
2022/05/02 09:03:42;;;;;;;6.80;6.10;;;;;;;;;;5012947;28;20182;-69
2022/05/02 09:06:26;;;;;;;7.05;6.20;;;;;;;;;;5012275;28;20182;-69
2022/05/02 09:09:03;;;;;;;7.97;6.13;;;;;;;;;;5022078;28;20182;-69
2022/05/02 09:11:37;;;;;;;6.88;6.25;;;;;;;;;;5012432;28;20206;-69
2022/05/02 09:14:14;;;;;;;7.47;6.78;;;;;;;;;;5012072;28;20751;-69
2022/05/02 09:16:52;;;;;;;6.93;6.28;;;;;;;;;;5012534;28;20240;-68
2022/05/02 09:19:31;;;;;;;6.82;5.90;;;;;;;;;;5010499;28;20663;-69
2022/05/02 09:22:09;;;;;;;6.53;5.80;;;;;;;;;;5012176;28;20214;-69
2022/05/02 09:24:53;;;;;;;8.10;5.95;;;;;;;;;;5012444;28;20210;-69
2022/05/02 09:27:24;;;;;;;6.82;5.60;;;;;;;;;;5006493;28;20174;-69
2022/05/02 09:30:02;;;;;;;5.60;5.05;;;;;;;;;;5008124;28;20569;-69
2022/05/02 09:32:40;;;;;;;8.30;5.40;;;;;;;;;;5008314;28;20318;-69
2022/05/02 09:35:10;;;;;;;5.80;5.30;;;;;;;;;;5012486;28;20229;-69
2022/05/02 09:37:39;;;;;;;6.80;5.35;;;;;;;;;;5010783;28;20207;-69
2022/05/02 09:40:20;;;;;;;6.18;4.88;;;;;;;;;;5012110;28;20683;-69
2022/05/02 09:42:50;;;;;;;7.97;5.60;;;;;;;;;;5007733;28;20237;-69
2022/05/02 09:51:21;;;;;;;8.25;5.20;;;;;;;;;;4982859;28;20241;-69
2022/05/02 09:54:03;;;;;;;7.70;6.00;;;;;;;;;;5014709;28;20182;-69
2022/05/02 09:56:39;;;;;;;7.20;5.32;;;;;;;;;;5007604;28;20254;-69
2022/05/02 09:59:10;;;;;;;5.70;5.20;;;;;;;;;;5011377;28;20189;-69
2022/05/02 10:01:40;;;;;;;7.85;5.10;;;;;;;;;;5011408;28;20695;-69
2022/05/02 10:04:11;;;;;;;6.57;5.63;;;;;;;;;;5012219;28;20179;-69
2022/05/02 10:06:36;;;;;;;5.32;4.32;;;;;;;;;;5010343;28;20178;-69
2022/05/02 10:09:03;;;;;;;6.72;5.03;;;;;;;;;;5019007;28;20183;-67
2022/05/02 10:11:34;;;;;;;5.47;4.43;;;;;;;;;;5014691;28;20861;-68
2022/05/02 10:14:10;;;;;;;6.90;5.20;;;;;;;;;;5017045;28;20182;-67
2022/05/02 10:16:50;;;;;;;6.53;4.90;;;;;;;;;;5019055;28;20539;-68
2022/05/02 10:19:27;;;;;;;5.50;4.38;;;;;;;;;;5018039;28;20179;-68
2022/05/02 10:21:55;;;;;;;4.63;4.13;;;;;;;;;;5014919;28;20301;-68
2022/05/02 10:24:26;;;;;;;5.43;4.93;;;;;;;;;;5018971;28;20185;-68
2022/05/02 10:27:07;;;;;;;5.18;4.63;;;;;;;;;;5017056;28;20560;-68
2022/05/02 10:29:58;;;;;;;7.22;4.30;;;;;;;;;;5007015;28;20705;-68
2022/05/02 10:32:23;;;;;;;6.35;5.75;;;;;;;;;;5007180;28;20223;-68
2022/05/02 10:34:52;;;;;;;8.20;5.63;;;;;;;;;;5011348;28;20185;-68
2022/05/02 10:37:20;;;;;;;4.93;4.45;;;;;;;;;;5011322;28;20590;-68
2022/05/02 10:39:48;;;;;;;5.05;4.38;;;;;;;;;;5011149;28;20187;-68
2022/05/02 10:42:16;;;;;;;5.32;4.43;;;;;;;;;;5011334;28;20278;-68
2022/05/02 10:44:48;;;;;;;5.53;4.85;;;;;;;;;;5006095;28;20586;-68
2022/05/02 10:47:17;;;;;;;4.80;4.13;;;;;;;;;;5008018;28;20178;-69
2022/05/02 10:49:48;;;;;;;5.00;4.50;;;;;;;;;;5010262;28;20262;-68
2022/05/02 10:52:15;;;;;;;4.72;4.30;;;;;;;;;;5019949;28;20209;-68
2022/05/02 10:54:41;;;;;;;4.20;3.80;;;;;;;;;;5003488;28;20185;-69
2022/05/02 10:57:30;;;;;;;5.68;4.97;;;;;;;;;;5015040;28;20262;-68
2022/05/02 10:59:59;;;;;;;6.35;5.35;;;;;;;;;;5011393;28;20325;-68
2022/05/02 11:02:41;;;;;;;7.88;5.43;;;;;;;;;;5015059;28;20261;-68
2022/05/02 11:05:08;;;;;;;5.97;5.15;;;;;;;;;;5011668;28;20183;-68
2022/05/02 11:07:53;;;;;;;6.32;5.40;;;;;;;;;;5010726;28;20266;-68
2022/05/02 11:10:19;;;;;;;7.95;4.90;;;;;;;;;;5014970;28;20929;-68
2022/05/02 11:12:46;;;;;;;4.97;4.40;;;;;;;;;;5013528;28;20237;-68
2022/05/02 11:15:14;;;;;;;5.25;4.50;;;;;;;;;;5014701;28;20175;-69
2022/05/02 11:17:58;;;;;;;5.05;4.20;;;;;;;;;;5012166;28;20301;-68
2022/05/02 11:20:42;;;;;;;6.88;4.35;;;;;;;;;;5019578;28;20194;-69
2022/05/02 11:23:14;;;;;;;6.03;4.47;;;;;;;;;;5014982;28;20187;-68
2022/05/02 11:25:46;;;;;;;6.65;4.55;;;;;;;;;;5008816;28;20229;-68
2022/05/02 11:28:11;;;;;;;5.63;4.97;;;;;;;;;;5012949;28;20179;-68
2022/05/02 11:30:39;;;;;;;5.30;4.70;;;;;;;;;;5014746;28;20293;-68
2022/05/02 11:33:04;;;;;;;6.47;4.90;;;;;;;;;;5014393;28;20179;-69
2022/05/02 11:35:30;;;;;;;4.65;4.18;;;;;;;;;;5013137;28;20182;-69
2022/05/02 11:38:02;;;;;;;4.95;4.30;;;;;;;;;;5013740;28;20282;-69
2022/05/02 11:40:47;;;;;;;6.10;4.72;;;;;;;;;;5006296;28;20191;-68
2022/05/02 11:43:20;;;;;;;6.35;4.78;;;;;;;;;;5013064;28;20227;-68
2022/05/02 11:45:59;;;;;;;7.45;4.80;;;;;;;;;;5014326;28;20179;-68
2022/05/02 11:48:45;;;;;;;5.63;4.72;;;;;;;;;;5010507;28;20179;-68
2022/05/02 11:51:16;;;;;;;5.05;4.55;;;;;;;;;;5011724;28;20214;-68
2022/05/02 11:53:46;;;;;;;8.07;5.00;;;;;;;;;;5018377;28;20182;-68
2022/05/02 11:56:13;;;;;;;6.47;5.07;;;;;;;;;;5014333;28;20179;-68
2022/05/02 11:58:48;;;;;;;5.32;4.82;;;;;;;;;;5009022;28;20648;-69
2022/05/02 12:01:20;;;;;;;5.32;4.82;;;;;;;;;;5012987;28;20222;-69
2022/05/02 12:03:53;;;;;;;4.93;4.50;;;;;;;;;;5013797;28;20179;-68
2022/05/02 12:06:23;;;;;;;7.57;5.22;;;;;;;;;;5014158;28;20525;-68
2022/05/02 12:08:51;;;;;;;6.30;5.15;;;;;;;;;;5013223;28;20186;-68
2022/05/02 12:11:16;;;;;;;5.10;4.50;;;;;;;;;;5013641;28;20248;-68
2022/05/02 12:13:44;;;;;;;5.30;4.80;;;;;;;;;;5013845;28;20265;-68
2022/05/02 12:16:19;;;;;;;5.50;4.95;;;;;;;;;;5013536;28;20186;-68
2022/05/02 12:18:45;;;;;;;5.85;5.20;;;;;;;;;;5008618;28;20170;-68
2022/05/02 12:21:31;;;;;;;6.97;5.53;;;;;;;;;;5022714;28;20294;-68
2022/05/02 12:23:58;;;;;;;5.70;5.05;;;;;;;;;;5016797;28;20175;-68
2022/05/02 12:26:23;;;;;;;4.80;4.40;;;;;;;;;;5013099;28;20175;-67
2022/05/02 12:28:56;;;;;;;5.95;4.53;;;;;;;;;;5013560;28;20186;-68
2022/05/02 12:31:28;;;;;;;5.20;4.70;;;;;;;;;;5013246;28;20272;-68
2022/05/02 12:33:59;;;;;;;6.60;5.97;;;;;;;;;;5013679;28;20257;-68
2022/05/02 12:36:26;;;;;;;6.50;4.95;;;;;;;;;;5006205;28;20179;-68
2022/05/02 12:39:01;;;;;;;6.93;6.22;;;;;;;;;;5009570;28;20183;-67
2022/05/02 12:41:28;;;;;;;6.78;5.22;;;;;;;;;;5014176;28;20197;-68
2022/05/02 12:43:58;;;;;;;7.65;5.25;;;;;;;;;;5013576;28;20596;-68
2022/05/02 12:46:32;;;;;;;5.05;4.60;;;;;;;;;;5000862;28;20177;-68
2022/05/02 12:49:02;;;;;;;6.28;5.68;;;;;;;;;;5010946;28;20179;-68
2022/05/02 12:51:29;;;;;;;6.80;5.28;;;;;;;;;;5013881;28;20206;-68
2022/05/02 12:54:14;;;;;;;7.38;5.70;;;;;;;;;;5014316;28;20262;-68
2022/05/02 13:02:39;;;;;;;5.47;4.97;;;;;;;;;;5012208;28;20276;-68
2022/05/02 13:05:06;;;;;;;4.75;4.35;;;;;;;;;;5012336;28;20573;-68
2022/05/02 13:07:44;;;;;;;5.95;5.20;;;;;;;;;;5012308;28;20622;-68
2022/05/02 13:10:14;;;;;;;6.18;5.15;;;;;;;;;;5012330;28;20178;-67
2022/05/02 13:12:52;;;;;;;6.05;5.47;;;;;;;;;;5012755;28;20236;-67
2022/05/02 13:15:17;;;;;;;6.18;5.45;;;;;;;;;;5012323;28;20236;-67
2022/05/02 13:17:43;;;;;;;5.82;5.22;;;;;;;;;;5011908;28;20175;-68
2022/05/02 13:20:12;;;;;;;5.63;5.13;;;;;;;;;;5012585;28;20175;-68
2022/05/02 13:23:01;;;;;;;6.50;5.80;;;;;;;;;;5011867;28;20213;-68
2022/05/02 13:25:45;;;;;;;6.03;5.53;;;;;;;;;;5009589;28;20682;-68
2022/05/02 13:28:15;;;;;;;6.75;5.50;;;;;;;;;;5015463;28;20657;-68
2022/05/02 13:30:41;;;;;;;6.53;5.90;;;;;;;;;;5020745;28;20203;-67
2022/05/02 13:33:08;;;;;;;6.10;5.25;;;;;;;;;;5024543;28;20253;-68
2022/05/02 13:35:34;;;;;;;8.38;6.45;;;;;;;;;;5030989;28;20231;-68
2022/05/02 13:38:00;;;;;;;6.35;5.35;;;;;;;;;;5013979;28;20258;-68
2022/05/02 13:40:44;;;;;;;7.75;5.60;;;;;;;;;;5012737;28;20349;-69
2022/05/02 13:43:18;;;;;;;8.13;5.60;;;;;;;;;;5012708;28;20174;-68
2022/05/02 13:45:50;;;;;;;6.00;5.22;;;;;;;;;;5008070;28;20633;-69
2022/05/02 13:48:18;;;;;;;5.60;5.07;;;;;;;;;;5027105;28;20596;-69
2022/05/02 13:50:59;;;;;;;8.48;5.35;;;;;;;;;;5022390;28;20229;-69
2022/05/02 13:53:32;;;;;;;5.97;5.43;;;;;;;;;;5007827;28;20200;-69
2022/05/02 13:56:11;;;;;;;5.63;5.13;;;;;;;;;;5011995;28;20754;-68
2022/05/02 13:58:53;;;;;;;5.97;5.32;;;;;;;;;;5030867;28;20167;-68
2022/05/02 14:01:29;;;;;;;5.45;4.90;;;;;;;;;;5017057;28;20599;-69
2022/05/02 14:04:01;;;;;;;5.68;5.18;;;;;;;;;;5011464;28;20225;-69
2022/05/02 14:06:30;;;;;;;7.60;4.78;;;;;;;;;;5012331;28;20179;-69
2022/05/02 14:08:56;;;;;;;3.90;3.50;;;;;;;;;;5011451;28;20236;-68
2022/05/02 14:11:27;;;;;;;3.25;2.72;;;;;;;;;;5011864;28;20203;-68
2022/05/02 14:14:06;;;;;;;3.20;2.35;;;;;;;;;;5011839;28;20175;-68
2022/05/02 14:16:35;;;;;;;3.42;2.10;;;;;;;;;;5011953;28;20202;-68
2022/05/02 14:19:01;;;;;;;4.43;4.03;;;;;;;;;;5011396;28;20254;-68
2022/05/02 14:21:29;;;;;;;5.25;3.60;;;;;;;;;;5000732;28;20740;-68
2022/05/02 14:23:55;;;;;;;3.25;2.70;;;;;;;;;;4993409;28;20200;-68
2022/05/02 14:26:21;;;;;;;5.00;3.00;;;;;;;;;;4997712;28;20623;-68
2022/05/02 14:28:50;;;;;;;4.10;3.70;;;;;;;;;;5010567;28;20206;-68
2022/05/02 14:31:16;;;;;;;3.05;2.70;;;;;;;;;;5020764;28;20210;-68
2022/05/02 14:33:41;;;;;;;4.85;3.38;;;;;;;;;;5022742;28;20549;-68
2022/05/02 14:36:11;;;;;;;4.28;2.60;;;;;;;;;;5031824;28;20628;-68
2022/05/02 14:38:36;;;;;;;3.28;2.97;;;;;;;;;;5014552;28;20656;-68
2022/05/02 14:41:02;;;;;;;2.88;2.67;;;;;;;;;;5012186;28;20202;-68
2022/05/02 14:43:27;;;;;;;3.25;2.90;;;;;;;;;;5012159;28;20171;-68
2022/05/02 14:45:53;;;;;;;3.05;2.85;;;;;;;;;;5011775;28;20179;-68
2022/05/02 14:48:19;;;;;;;3.42;2.97;;;;;;;;;;5011243;28;20179;-69
2022/05/02 14:50:45;;;;;;;3.10;2.80;;;;;;;;;;5012144;28;20292;-68
2022/05/02 14:53:12;;;;;;;5.93;3.15;;;;;;;;;;5011886;28;20257;-68
2022/05/02 14:55:40;;;;;;;3.15;2.85;;;;;;;;;;5011827;28;20664;-68
2022/05/02 14:58:06;;;;;;;4.85;3.42;;;;;;;;;;5011640;28;20471;-68
2022/05/02 15:00:33;;;;;;;4.50;2.60;;;;;;;;;;5010436;28;20198;-68
2022/05/02 15:02:59;;;;;;;3.70;2.90;;;;;;;;;;5011232;28;20664;-68
2022/05/02 15:05:25;;;;;;;3.38;3.08;;;;;;;;;;5011858;28;20183;-68
2022/05/02 15:07:59;;;;;;;4.05;2.70;;;;;;;;;;5011446;28;20221;-68
2022/05/02 15:10:28;;;;;;;3.72;3.40;;;;;;;;;;5011612;28;20562;-68
2022/05/02 15:12:59;;;;;;;7.70;3.95;;;;;;;;;;5011817;28;20163;-68
2022/05/02 15:15:33;;;;;;;4.55;3.58;;;;;;;;;;5010482;28;20215;-68